createdAt,value
2022-10-10T00:28:50.925Z,0
2022-10-10T00:29:31.223Z,0
2022-10-10T00:30:11.754Z,0
2022-10-10T00:30:52.155Z,0
2022-10-10T00:31:32.612Z,0
2022-10-10T00:32:13.158Z,0
2022-10-10T00:32:53.605Z,0
2022-10-10T00:33:34.115Z,0
2022-10-10T00:34:14.592Z,0
2022-10-10T00:35:35.572Z,0
2022-10-10T00:43:00.874Z,0
2022-10-10T00:43:41.346Z,0
2022-10-10T00:44:21.911Z,0
2022-10-10T00:45:02.382Z,0
2022-10-10T00:45:42.850Z,0
2022-10-10T00:46:23.344Z,0
2022-10-10T00:47:03.827Z,0
2022-10-10T00:48:24.797Z,0
2022-10-10T00:49:05.258Z,0
2022-10-10T00:49:45.730Z,0
2022-10-10T00:56:30.580Z,0
2022-10-10T00:57:11.025Z,0
2022-10-10T00:57:51.522Z,0
2022-10-10T00:58:31.962Z,0
2022-10-10T01:01:45.823Z,0
2022-10-10T01:02:26.293Z,0
2022-10-10T01:03:06.759Z,0
2022-10-10T01:03:47.239Z,0
2022-10-10T01:04:27.708Z,0
2022-10-10T01:05:08.165Z,0
2022-10-10T01:05:48.615Z,0
2022-10-10T01:06:29.157Z,0
2022-10-10T01:07:09.554Z,0
2022-10-10T01:07:49.997Z,0
2022-10-10T01:08:30.455Z,0
2022-10-10T01:15:55.840Z,0
2022-10-10T01:16:36.226Z,0
2022-10-10T01:17:16.721Z,0
2022-10-10T01:17:57.233Z,0
2022-10-10T01:18:37.725Z,0
2022-10-10T01:19:18.223Z,0
2022-10-10T01:19:58.677Z,0
2022-10-10T01:20:39.155Z,0
2022-10-10T01:21:19.668Z,0
2022-10-10T01:22:00.104Z,0
2022-10-10T01:22:40.572Z,0
2022-10-10T01:29:25.444Z,0
2022-10-10T01:30:05.930Z,0
2022-10-10T01:30:46.429Z,0
2022-10-10T01:31:26.876Z,0
2022-10-10T01:32:07.339Z,0
2022-10-10T01:32:48.203Z,0
2022-10-10T01:33:28.275Z,0
2022-10-10T01:34:08.762Z,0
2022-10-10T01:34:49.242Z,0
2022-10-10T01:35:29.758Z,0
2022-10-10T01:36:10.164Z,0
2022-10-10T01:36:50.619Z,0
2022-10-10T01:43:35.363Z,0
2022-10-10T01:44:15.888Z,0
2022-10-10T01:44:56.343Z,0
2022-10-10T01:45:36.839Z,0
2022-10-10T01:46:17.344Z,0
2022-10-10T01:46:57.811Z,0
2022-10-10T01:47:38.255Z,0
2022-10-10T01:48:18.759Z,0
2022-10-10T01:48:59.252Z,0
2022-10-10T01:49:39.749Z,0
2022-10-10T01:50:20.216Z,0
2022-10-10T01:51:00.705Z,0
2022-10-10T01:57:45.469Z,0
2022-10-10T01:58:25.954Z,0
2022-10-10T01:59:06.421Z,0
2022-10-10T01:59:46.882Z,0
2022-10-10T02:00:27.392Z,0
2022-10-10T02:01:07.891Z,0
2022-10-10T02:01:48.370Z,0
2022-10-10T02:02:28.838Z,0
2022-10-10T02:03:09.270Z,0
2022-10-10T02:03:49.757Z,0
2022-10-10T02:04:30.249Z,0
2022-10-10T02:11:16.978Z,0
2022-10-10T02:11:57.506Z,0
2022-10-10T02:12:38.042Z,0
2022-10-10T02:13:18.506Z,0
2022-10-10T02:13:58.985Z,0
2022-10-10T02:14:39.428Z,0
2022-10-10T02:15:19.903Z,0
2022-10-10T02:16:00.371Z,0
2022-10-10T02:23:25.633Z,0
2022-10-10T02:24:06.103Z,0
2022-10-10T02:24:46.589Z,0
2022-10-10T02:25:27.048Z,0
2022-10-10T02:26:07.550Z,0
2022-10-10T02:26:48.035Z,0
2022-10-10T02:27:28.473Z,0
2022-10-10T02:28:49.439Z,0
2022-10-10T02:29:29.968Z,0
2022-10-10T02:30:10.406Z,0
2022-10-10T02:37:35.723Z,0
2022-10-10T02:38:16.206Z,0
2022-10-10T02:38:56.652Z,0
2022-10-10T02:39:37.172Z,0
2022-10-10T02:40:17.615Z,0
2022-10-10T02:40:58.097Z,0
2022-10-10T02:41:38.565Z,0
2022-10-10T02:42:19.030Z,0
2022-10-10T02:42:59.554Z,0
2022-10-10T02:43:40.056Z,0
2022-10-10T02:44:20.531Z,0
2022-10-10T02:51:05.442Z,0
2022-10-10T02:51:45.933Z,0
2022-10-10T02:52:26.392Z,0
2022-10-10T02:53:06.883Z,0
2022-10-10T02:53:47.389Z,0
2022-10-10T02:57:01.123Z,0
2022-10-10T02:57:41.484Z,0
2022-10-10T02:58:21.973Z,0
2022-10-10T02:59:02.469Z,0
2022-10-10T02:59:42.949Z,0
2022-10-10T03:00:23.414Z,0
2022-10-10T03:01:03.926Z,0
2022-10-10T03:01:44.373Z,0
2022-10-10T03:02:24.818Z,0
2022-10-10T03:03:05.272Z,0
2022-10-10T03:03:45.731Z,0
2022-10-10T03:09:50.802Z,0
2022-10-10T03:10:31.340Z,0
2022-10-10T03:11:11.788Z,0
2022-10-10T03:11:52.209Z,0
2022-10-10T03:12:32.705Z,0
2022-10-10T03:13:13.188Z,0
2022-10-10T03:13:53.661Z,0
2022-10-10T03:14:34.118Z,0
2022-10-10T03:15:14.596Z,0
2022-10-10T03:16:35.606Z,0
2022-10-10T03:17:16.046Z,0
2022-10-10T03:24:00.848Z,0
2022-10-10T03:24:41.301Z,0
2022-10-10T03:25:21.794Z,0
2022-10-10T03:26:02.272Z,0
2022-10-10T03:26:42.705Z,0
2022-10-10T03:27:23.175Z,0
2022-10-10T03:28:03.612Z,0
2022-10-10T03:28:44.108Z,0
2022-10-10T03:29:24.541Z,0
2022-10-10T03:30:05.040Z,0
2022-10-10T03:30:45.519Z,0
2022-10-10T03:31:25.970Z,0
2022-10-10T03:38:10.916Z,0
2022-10-10T03:38:51.440Z,0
2022-10-10T03:39:31.873Z,0
2022-10-10T03:40:12.322Z,0
2022-10-10T03:40:52.800Z,0
2022-10-10T03:41:33.300Z,0
2022-10-10T03:42:13.767Z,0
2022-10-10T03:42:54.344Z,0
2022-10-10T03:43:34.741Z,0
2022-10-10T03:44:15.216Z,0
2022-10-10T03:44:55.662Z,0
2022-10-10T03:52:20.883Z,0
2022-10-10T03:53:01.269Z,0
2022-10-10T03:53:41.779Z,0
2022-10-10T03:54:22.251Z,0
2022-10-10T03:55:02.766Z,0
2022-10-10T03:55:43.221Z,0
2022-10-10T03:56:23.698Z,0
2022-10-10T03:57:04.138Z,0
2022-10-10T03:57:44.623Z,0
2022-10-10T03:58:25.125Z,0
2022-10-10T03:59:05.579Z,0
2022-10-10T03:59:46.019Z,0
2022-10-10T04:06:30.838Z,0
2022-10-10T04:07:11.334Z,0
2022-10-10T04:07:51.849Z,0
2022-10-10T04:08:32.306Z,0
2022-10-10T04:09:12.790Z,0
2022-10-10T04:09:53.286Z,0
2022-10-10T04:10:33.760Z,0
2022-10-10T04:11:14.262Z,0
2022-10-10T04:11:54.759Z,0
2022-10-10T04:12:35.222Z,0
2022-10-10T04:13:15.710Z,0
2022-10-10T04:20:41.074Z,0
2022-10-10T04:21:21.563Z,0
2022-10-10T04:22:02.061Z,0
2022-10-10T04:22:42.556Z,0
2022-10-10T04:23:23.040Z,0
2022-10-10T04:24:03.490Z,0
2022-10-10T04:24:44.010Z,0
2022-10-10T04:25:24.475Z,0
2022-10-10T04:26:04.950Z,0
2022-10-10T04:26:45.440Z,0
2022-10-10T04:27:25.947Z,0
2022-10-10T04:34:10.699Z,0
2022-10-10T04:34:51.206Z,0
2022-10-10T04:35:31.667Z,0
2022-10-10T04:36:12.149Z,0
2022-10-10T04:36:52.588Z,0
2022-10-10T04:37:33.062Z,0
2022-10-10T04:38:13.611Z,0
2022-10-10T04:39:34.506Z,0
2022-10-10T04:40:15.054Z,0
2022-10-10T04:40:55.500Z,0
2022-10-10T04:48:20.825Z,0
2022-10-10T04:49:01.291Z,0
2022-10-10T04:49:41.771Z,0
2022-10-10T04:50:22.257Z,0
2022-10-10T04:51:02.753Z,0
2022-10-10T04:51:43.185Z,0
2022-10-10T04:52:23.629Z,0
2022-10-10T04:53:04.168Z,0
2022-10-10T04:53:48.171Z,0
2022-10-10T04:54:25.149Z,0
2022-10-10T04:55:05.667Z,0
2022-10-10T05:02:31.010Z,0
2022-10-10T05:03:11.460Z,0
2022-10-10T05:03:51.908Z,0
2022-10-10T05:04:32.393Z,0
2022-10-10T05:05:12.913Z,0
2022-10-10T05:05:53.409Z,0
2022-10-10T05:06:33.894Z,0
2022-10-10T05:07:14.345Z,0
2022-10-10T05:07:55.877Z,0
2022-10-10T05:08:36.119Z,0
2022-10-10T05:15:21.088Z,0
2022-10-10T05:16:01.575Z,0
2022-10-10T05:16:42.062Z,0
2022-10-10T05:17:22.566Z,0
2022-10-10T05:18:03.075Z,0
2022-10-10T05:18:43.593Z,4
2022-10-10T05:19:24.113Z,4
2022-10-10T05:20:04.556Z,0
2022-10-10T05:20:45.095Z,0
2022-10-10T05:21:25.564Z,4
2022-10-10T05:22:06.100Z,4
2022-10-10T05:28:11.147Z,8
2022-10-10T05:28:51.531Z,12
2022-10-10T05:29:31.999Z,12
2022-10-10T05:30:12.448Z,12
2022-10-10T05:30:52.953Z,16
2022-10-10T05:31:33.504Z,12
2022-10-10T05:32:14.045Z,16
2022-10-10T05:32:54.580Z,20
2022-10-10T05:33:35.002Z,24
2022-10-10T05:34:15.458Z,20
2022-10-10T05:34:55.930Z,28
2022-10-10T05:41:41.564Z,64
2022-10-10T05:42:22.083Z,68
2022-10-10T05:43:02.561Z,76
2022-10-10T05:43:43.049Z,80
2022-10-10T05:44:23.565Z,84
2022-10-10T05:45:04.078Z,88
2022-10-10T05:45:44.542Z,96
2022-10-10T05:46:25.043Z,100
2022-10-10T05:47:05.575Z,108
2022-10-10T05:47:45.998Z,116
2022-10-10T05:50:59.885Z,148
2022-10-10T05:51:40.267Z,160
2022-10-10T05:52:20.805Z,164
2022-10-10T05:53:01.291Z,172
2022-10-10T05:53:41.766Z,184
2022-10-10T06:31:47.722Z,4456
2022-10-10T06:32:27.979Z,4600
2022-10-10T06:33:08.516Z,4780
2022-10-10T06:33:49.016Z,4832
2022-10-10T06:34:30.389Z,4940
2022-10-10T06:35:10.873Z,5004
2022-10-10T06:35:51.408Z,5196
2022-10-10T06:36:31.988Z,5500
2022-10-10T06:37:12.454Z,5684
2022-10-10T06:42:37.400Z,5580
2022-10-10T06:43:17.906Z,5764
2022-10-10T06:43:58.371Z,6012
2022-10-10T06:44:38.851Z,6380
2022-10-10T06:45:19.351Z,6472
2022-10-10T06:45:59.912Z,6448
2022-10-10T06:46:40.469Z,5724
2022-10-10T06:47:21.047Z,5288
2022-10-10T06:48:01.539Z,4984
2022-10-10T06:48:42.080Z,4904
2022-10-10T06:49:22.557Z,4848
2022-10-10T06:54:47.572Z,4120
2022-10-10T06:55:28.096Z,4216
2022-10-10T06:56:08.591Z,4376
2022-10-10T06:56:49.825Z,4528
2022-10-10T06:57:30.404Z,4584
2022-10-10T06:58:10.934Z,4492
2022-10-10T06:58:51.400Z,4336
2022-10-10T06:59:31.902Z,4196
2022-10-10T07:00:12.440Z,4056
2022-10-10T07:04:57.583Z,4464
2022-10-10T07:05:38.112Z,4432
2022-10-10T07:06:18.649Z,4380
2022-10-10T07:06:59.124Z,4224
2022-10-10T07:07:39.692Z,4128
2022-10-10T07:08:20.191Z,4052
2022-10-10T07:09:00.720Z,3936
2022-10-10T07:09:41.220Z,3820
2022-10-10T07:10:21.723Z,3848
2022-10-10T07:11:02.271Z,3880
2022-10-10T07:17:07.464Z,4252
2022-10-10T07:17:51.934Z,4216
2022-10-10T07:18:28.489Z,4088
2022-10-10T07:19:09.001Z,3892
2022-10-10T07:19:49.522Z,3800
2022-10-10T07:20:29.985Z,3852
2022-10-10T07:21:10.592Z,3808
2022-10-10T07:21:51.077Z,3888
2022-10-10T07:22:31.628Z,3860
2022-10-10T07:23:12.076Z,3536
2022-10-10T07:29:17.545Z,2732
2022-10-10T07:29:58.016Z,2716
2022-10-10T07:30:38.556Z,2628
2022-10-10T07:31:19.105Z,2412
2022-10-10T07:31:59.564Z,2196
2022-10-10T07:32:40.152Z,2128
2022-10-10T07:33:20.585Z,2060
2022-10-10T07:34:01.180Z,2012
2022-10-10T07:34:41.634Z,1996
2022-10-10T07:35:22.285Z,1980
2022-10-10T07:42:07.434Z,1748
2022-10-10T07:42:47.963Z,1700
2022-10-10T07:43:28.356Z,1684
2022-10-10T07:44:08.862Z,1684
2022-10-10T07:44:49.397Z,1692
2022-10-10T07:45:29.866Z,1708
2022-10-10T07:46:12.113Z,1712
2022-10-10T07:46:50.948Z,1700
2022-10-10T07:47:31.433Z,1712
2022-10-10T07:48:11.997Z,1752
2022-10-10T07:48:52.527Z,1776
2022-10-10T07:54:35.262Z,1860
2022-10-10T07:55:15.770Z,1876
2022-10-10T07:55:56.475Z,1868
2022-10-10T07:56:37.074Z,1880
2022-10-10T07:57:17.626Z,1888
2022-10-10T07:57:58.435Z,1860
2022-10-10T07:58:38.659Z,1844
2022-10-10T07:59:19.155Z,1828
2022-10-10T07:59:59.849Z,1812
2022-10-10T08:04:05.085Z,1716
2022-10-10T08:04:45.773Z,1700
2022-10-10T08:05:26.258Z,1712
2022-10-10T08:06:06.978Z,1732
2022-10-10T08:06:48.622Z,1752
2022-10-10T08:07:29.202Z,1740
2022-10-10T08:08:09.819Z,1692
2022-10-10T08:13:34.763Z,1560
2022-10-10T08:14:15.280Z,1564
2022-10-10T08:14:55.856Z,1604
2022-10-10T08:15:37.229Z,1612
2022-10-10T08:16:17.955Z,1620
2022-10-10T08:16:58.619Z,1640
2022-10-10T08:17:39.073Z,1656
2022-10-10T08:18:20.558Z,1640
2022-10-10T08:23:04.804Z,1580
2022-10-10T08:23:45.403Z,1580
2022-10-10T08:24:26.028Z,1584
2022-10-10T08:25:06.520Z,1572
2022-10-10T08:25:47.157Z,1520
2022-10-10T08:26:27.772Z,1548
2022-10-10T08:27:08.284Z,1552
2022-10-10T08:27:48.948Z,1556
2022-10-10T08:28:29.566Z,1552
2022-10-10T08:29:10.089Z,1568
2022-10-10T08:34:34.787Z,1528
2022-10-10T08:35:56.856Z,1500
2022-10-10T08:36:37.919Z,1484
2022-10-10T08:37:18.502Z,1472
2022-10-10T08:37:59.039Z,1452
2022-10-10T08:38:39.512Z,1424
2022-10-10T08:39:20.031Z,1420
2022-10-10T08:45:24.809Z,1304
2022-10-10T08:46:05.303Z,1312
2022-10-10T08:46:45.761Z,1296
2022-10-10T08:47:26.355Z,1304
2022-10-10T08:48:06.885Z,1308
2022-10-10T08:48:47.363Z,1344
2022-10-10T08:49:27.865Z,1328
2022-10-10T08:50:08.344Z,1376
2022-10-10T08:50:48.883Z,1384
2022-10-10T08:51:29.376Z,1372
2022-10-10T08:58:03.327Z,1320
2022-10-10T08:58:43.834Z,1320
2022-10-10T08:59:24.383Z,1312
2022-10-10T09:00:04.980Z,1300
2022-10-10T09:00:45.489Z,1296
2022-10-10T09:01:27.866Z,1304
2022-10-10T09:02:17.549Z,1300
2022-10-10T09:02:54.747Z,1292
2022-10-10T09:03:27.701Z,1296
2022-10-10T09:10:13.166Z,1252
2022-10-10T09:10:58.530Z,1236
2022-10-10T09:11:37.880Z,1236
2022-10-10T09:16:22.868Z,1196
2022-10-10T09:17:03.351Z,1228
2022-10-10T09:17:43.956Z,1224
2022-10-10T09:18:24.613Z,1228
2022-10-10T09:19:05.080Z,1228
2022-10-10T09:19:45.625Z,1220
2022-10-10T09:20:26.187Z,1216
2022-10-10T09:21:06.730Z,1208
2022-10-10T09:21:47.244Z,1208
2022-10-10T09:22:27.842Z,1192
2022-10-10T09:29:13.102Z,1204
2022-10-10T09:29:53.613Z,1208
2022-10-10T09:30:34.121Z,1208
2022-10-10T09:31:14.609Z,1208
2022-10-10T09:31:55.202Z,1200
2022-10-10T09:32:36.575Z,1196
2022-10-10T09:33:17.133Z,1192
2022-10-10T09:33:57.668Z,1192
2022-10-10T09:34:38.218Z,1188
2022-10-10T09:40:03.288Z,1240
2022-10-10T09:40:43.825Z,1240
2022-10-10T09:41:24.408Z,1236
2022-10-10T09:42:04.924Z,1232
2022-10-10T09:42:45.641Z,1240
2022-10-10T09:43:27.148Z,1240
2022-10-10T09:44:07.673Z,1244
2022-10-10T09:44:48.155Z,1244
2022-10-10T09:51:33.220Z,1332
2022-10-10T09:52:13.691Z,1352
2022-10-10T09:52:54.220Z,1364
2022-10-10T09:53:34.705Z,1392
2022-10-10T09:54:15.272Z,1420
2022-10-10T09:54:55.740Z,1420
2022-10-10T09:55:36.254Z,1288
2022-10-10T09:57:50.051Z,1160
2022-10-10T09:58:30.649Z,1168
2022-10-10T09:59:11.485Z,1176
2022-10-10T09:59:52.196Z,1236
2022-10-10T10:00:33.246Z,1232
2022-10-10T10:01:14.229Z,1184
2022-10-10T10:04:39.027Z,1244
2022-10-10T10:05:19.729Z,1252
2022-10-10T10:06:00.177Z,1288
2022-10-10T10:06:40.658Z,1304
2022-10-10T10:07:21.196Z,1280
2022-10-10T10:08:02.440Z,1252
2022-10-10T10:08:44.694Z,1260
2022-10-10T10:09:23.627Z,1272
2022-10-10T10:15:29.204Z,1296
2022-10-10T10:16:09.835Z,1288
2022-10-10T10:16:50.383Z,1332
2022-10-10T10:17:30.912Z,1392
2022-10-10T10:18:11.362Z,1400
2022-10-10T10:18:52.883Z,1452
2022-10-10T10:19:33.474Z,1452
2022-10-10T10:21:53.306Z,1504
2022-10-10T10:22:33.695Z,1440
2022-10-10T10:23:14.823Z,1428
2022-10-10T10:23:55.388Z,1420
2022-10-10T10:24:35.889Z,1560
2022-10-10T10:25:16.464Z,1496
2022-10-10T10:25:57.272Z,1520
2022-10-10T10:26:37.532Z,1420
2022-10-10T10:27:18.128Z,1420
2022-10-10T10:33:22.889Z,1396
2022-10-10T10:34:03.384Z,1364
2022-10-10T10:34:43.921Z,1372
2022-10-10T10:35:24.374Z,1332
2022-10-10T10:36:04.947Z,1320
2022-10-10T10:36:46.505Z,1348
2022-10-10T10:37:26.953Z,1328
2022-10-10T10:38:07.501Z,1408
2022-10-10T10:38:48.028Z,1516
2022-10-10T10:46:06.939Z,1540
2022-10-10T10:46:47.390Z,1572
2022-10-10T10:47:28.608Z,1656
2022-10-10T10:48:09.768Z,1696
2022-10-10T10:48:50.291Z,1704
2022-10-10T10:49:30.789Z,1732
2022-10-10T10:50:11.277Z,1788
2022-10-10T10:50:52.637Z,1776
2022-10-10T10:54:57.389Z,1744
2022-10-10T10:55:39.294Z,1676
2022-10-10T10:56:19.229Z,1624
2022-10-10T10:57:02.164Z,1672
2022-10-10T10:57:59.817Z,1660
2022-10-10T10:58:58.556Z,1688
2022-10-10T11:03:27.628Z,1788
2022-10-10T11:05:15.489Z,1612
2022-10-10T11:05:16.941Z,1568
2022-10-10T11:05:21.846Z,1628
2022-10-10T11:05:49.469Z,1632
2022-10-10T11:06:30.342Z,1556
2022-10-10T11:07:18.746Z,1680
2022-10-10T11:07:51.437Z,1636
2022-10-10T11:08:32.851Z,1652
2022-10-10T11:13:16.950Z,1508
2022-10-10T11:13:57.479Z,1568
2022-10-10T11:14:39.005Z,1524
2022-10-10T11:15:19.587Z,1492
2022-10-10T11:16:10.786Z,1460
2022-10-10T11:16:49.024Z,1460
2022-10-10T11:17:21.048Z,1560
2022-10-10T11:18:01.685Z,1548
2022-10-10T11:23:27.013Z,1540
2022-10-10T11:24:07.544Z,1516
2022-10-10T11:24:48.877Z,1496
2022-10-10T11:25:29.107Z,1500
2022-10-10T11:26:09.598Z,1500
2022-10-10T11:26:50.124Z,1496
2022-10-10T11:27:30.587Z,1492
2022-10-10T11:28:11.121Z,1484
2022-10-10T11:28:51.658Z,1488
2022-10-10T11:34:57.067Z,1680
2022-10-10T11:35:37.581Z,1656
2022-10-10T11:36:18.100Z,1608
2022-10-10T11:36:58.574Z,1672
2022-10-10T11:37:39.102Z,1664
2022-10-10T11:38:19.620Z,1624
2022-10-10T11:39:00.159Z,1628
2022-10-10T11:39:40.686Z,1676
2022-10-10T11:41:01.696Z,1688
2022-10-10T11:48:34.783Z,1520
2022-10-10T11:49:15.358Z,1524
2022-10-10T11:49:55.903Z,1460
2022-10-10T11:50:36.434Z,1424
2022-10-10T11:51:16.940Z,1412
2022-10-10T11:52:09.749Z,1400
2022-10-10T11:52:38.939Z,1396
2022-10-10T11:53:19.512Z,1392
2022-10-10T12:31:56.032Z,1452
2022-10-10T12:32:37.644Z,1428
2022-10-10T12:33:18.499Z,1416
2022-10-10T12:33:59.162Z,1416
2022-10-10T12:34:40.437Z,1412
2022-10-10T12:35:20.974Z,1408
2022-10-10T12:38:06.090Z,1348
2022-10-10T12:38:46.885Z,1340
2022-10-10T12:39:27.638Z,1348
2022-10-10T12:40:08.816Z,1336
2022-10-10T12:40:49.364Z,1344
2022-10-10T12:41:30.257Z,1364
2022-10-10T12:42:10.813Z,1356
2022-10-10T12:48:00.185Z,1300
2022-10-10T12:48:16.597Z,1348
2022-10-10T12:48:57.258Z,1376
2022-10-10T12:49:38.137Z,1396
2022-10-10T12:50:18.618Z,1344
2022-10-10T12:50:59.728Z,1324
2022-10-10T12:51:39.837Z,1444
2022-10-10T12:52:21.365Z,1368
2022-10-10T12:55:45.749Z,1520
2022-10-10T12:56:26.433Z,1492
2022-10-10T12:57:07.098Z,1432
2022-10-10T12:57:47.634Z,1436
2022-10-10T12:58:28.238Z,1540
2022-10-10T12:59:08.741Z,1496
2022-10-10T12:59:50.380Z,1500
2022-10-10T13:00:30.957Z,1472
2022-10-10T13:05:56.151Z,1412
2022-10-10T13:06:36.631Z,1440
2022-10-10T13:07:17.236Z,1568
2022-10-10T13:07:57.750Z,1456
2022-10-10T13:08:39.230Z,1512
2022-10-10T13:09:19.746Z,1368
2022-10-10T13:10:00.409Z,1292
2022-10-10T13:10:40.954Z,1272
2022-10-10T13:14:46.082Z,1132
2022-10-10T13:15:26.692Z,1092
2022-10-10T13:16:08.108Z,1048
2022-10-10T13:16:48.722Z,1012
2022-10-10T13:17:29.434Z,980
2022-10-10T13:18:10.302Z,948
2022-10-10T13:18:50.796Z,932
2022-10-10T13:24:55.839Z,928
2022-10-10T13:25:36.357Z,932
2022-10-10T13:26:16.876Z,972
2022-10-10T13:26:57.345Z,1000
2022-10-10T13:27:37.856Z,1072
2022-10-10T13:28:19.469Z,1072
2022-10-10T13:30:38.613Z,984
2022-10-10T13:31:19.283Z,984
2022-10-10T13:34:00.372Z,1052
2022-10-10T13:34:41.186Z,1068
2022-10-10T13:35:22.121Z,1076
2022-10-10T13:36:03.213Z,1160
2022-10-10T13:36:44.192Z,1072
2022-10-10T13:41:24.040Z,1028
2022-10-10T13:42:04.408Z,976
2022-10-10T13:42:45.407Z,1004
2022-10-10T13:43:25.501Z,1080
2022-10-10T13:44:06.121Z,992
2022-10-10T13:46:51.697Z,952
2022-10-10T13:47:34.330Z,892
2022-10-10T13:48:18.152Z,892
2022-10-10T13:51:01.600Z,828
2022-10-10T13:51:42.171Z,808
2022-10-10T13:52:22.688Z,796
2022-10-10T13:53:03.446Z,796
2022-10-10T13:55:42.554Z,740
2022-10-10T13:56:23.434Z,784
2022-10-10T13:57:03.737Z,836
2022-10-10T13:57:44.239Z,744
2022-10-10T13:58:24.785Z,732
2022-10-10T13:59:05.329Z,712
2022-10-10T13:59:45.767Z,700
2022-10-10T14:00:26.333Z,688
2022-10-10T14:01:07.198Z,676
2022-10-10T14:01:47.445Z,660
2022-10-10T14:08:32.382Z,684
2022-10-10T14:09:12.817Z,692
2022-10-10T14:09:53.823Z,700
2022-10-10T14:10:34.135Z,700
2022-10-10T14:11:14.726Z,700
2022-10-10T14:11:55.269Z,700
2022-10-10T14:12:36.858Z,696
2022-10-10T14:13:17.406Z,692
2022-10-10T14:19:22.550Z,616
2022-10-10T14:20:03.116Z,604
2022-10-10T14:20:43.728Z,592
2022-10-10T14:21:24.171Z,580
2022-10-10T14:22:04.668Z,568
2022-10-10T14:22:45.207Z,560
2022-10-10T14:23:25.767Z,540
2022-10-10T14:24:06.285Z,520
2022-10-10T14:24:46.842Z,500
2022-10-10T14:25:27.413Z,492
2022-10-10T14:32:12.587Z,432
2022-10-10T14:32:53.139Z,420
2022-10-10T14:33:33.655Z,408
2022-10-10T14:34:15.186Z,396
2022-10-10T14:34:55.590Z,388
2022-10-10T14:35:36.119Z,380
2022-10-10T14:36:16.703Z,368
2022-10-10T14:36:57.133Z,356
2022-10-10T14:43:45.841Z,272
2022-10-10T14:44:23.040Z,264
2022-10-10T14:45:03.557Z,260
2022-10-10T14:45:44.029Z,252
2022-10-10T14:46:25.079Z,248
2022-10-10T14:47:05.601Z,252
2022-10-10T14:47:46.088Z,244
2022-10-10T14:48:26.581Z,236
2022-10-10T14:49:10.944Z,224
2022-10-10T14:54:32.261Z,200
2022-10-10T14:55:12.918Z,188
2022-10-10T14:55:56.206Z,188
2022-10-10T14:57:06.660Z,184
2022-10-10T14:57:14.543Z,192
2022-10-10T14:57:55.104Z,204
2022-10-10T14:58:35.558Z,220
2022-10-10T14:59:16.098Z,228
2022-10-10T14:59:56.630Z,224
2022-10-10T15:00:37.269Z,212
2022-10-10T15:07:22.367Z,188
2022-10-10T15:08:02.915Z,180
2022-10-10T15:08:43.411Z,176
2022-10-10T15:09:40.350Z,172
2022-10-10T15:10:32.502Z,172
2022-10-10T15:10:45.023Z,176
2022-10-10T15:11:25.469Z,172
2022-10-10T15:12:06.017Z,172
2022-10-10T15:12:46.581Z,172
2022-10-10T15:13:27.051Z,176
2022-10-10T15:20:12.348Z,180
2022-10-10T15:20:52.776Z,184
2022-10-10T15:21:33.372Z,188
2022-10-10T15:22:14.998Z,192
2022-10-10T15:22:55.977Z,204
2022-10-10T15:23:37.346Z,208
2022-10-10T15:25:35.190Z,220
2022-10-10T15:26:15.554Z,224
2022-10-10T15:26:56.113Z,232
2022-10-10T15:27:36.848Z,236
2022-10-10T15:28:17.976Z,236
2022-10-10T15:28:59.112Z,236
2022-10-10T15:29:40.226Z,232
2022-10-10T15:30:20.246Z,228
2022-10-10T15:36:24.954Z,152
2022-10-10T15:37:05.386Z,148
2022-10-10T15:37:45.965Z,148
2022-10-10T15:38:26.460Z,144
2022-10-10T15:39:06.859Z,140
2022-10-10T15:39:47.404Z,136
2022-10-10T15:40:27.889Z,132
2022-10-10T15:41:08.397Z,128
2022-10-10T15:41:48.941Z,124
2022-10-10T15:42:29.364Z,124
2022-10-10T15:43:09.840Z,120
2022-10-10T15:49:55.016Z,84
2022-10-10T15:50:35.483Z,80
2022-10-10T15:51:15.977Z,80
2022-10-10T15:51:56.467Z,68
2022-10-10T15:52:37.256Z,64
2022-10-10T15:53:18.020Z,56
2022-10-10T15:53:58.573Z,52
2022-10-10T15:54:40.148Z,52
2022-10-10T16:00:45.026Z,48
2022-10-10T16:01:25.750Z,44
2022-10-10T16:02:06.176Z,44
2022-10-10T16:02:46.831Z,40
2022-10-10T16:03:27.406Z,40
2022-10-10T16:04:07.836Z,40
2022-10-10T16:04:48.383Z,40
2022-10-10T16:05:28.916Z,44
2022-10-10T16:06:09.459Z,44
2022-10-10T16:06:54.336Z,48
2022-10-10T16:13:35.282Z,52
2022-10-10T16:14:15.788Z,52
2022-10-10T16:14:56.257Z,52
2022-10-10T16:15:36.774Z,56
2022-10-10T16:16:17.329Z,56
2022-10-10T16:17:00.346Z,60
2022-10-10T16:23:05.028Z,60
2022-10-10T16:23:45.837Z,60
2022-10-10T16:24:28.102Z,56
2022-10-10T16:25:21.644Z,56
2022-10-10T16:25:50.653Z,52
2022-10-10T16:31:16.304Z,64
2022-10-10T16:31:56.833Z,64
2022-10-10T16:32:41.898Z,68
2022-10-10T16:33:18.037Z,64
2022-10-10T16:33:58.622Z,64
2022-10-10T16:34:39.119Z,64
2022-10-10T16:35:19.572Z,60
2022-10-10T16:36:00.119Z,60
2022-10-10T16:42:45.381Z,32
2022-10-10T16:43:25.907Z,32
2022-10-10T16:44:06.344Z,28
2022-10-10T16:44:47.038Z,24
2022-10-10T16:45:27.673Z,24
2022-10-10T16:48:43.391Z,20
2022-10-10T16:49:23.541Z,20
2022-10-10T16:50:04.019Z,20
2022-10-10T16:50:44.567Z,20
2022-10-10T16:51:24.943Z,20
2022-10-10T16:52:05.446Z,20
2022-10-10T16:52:45.934Z,20
2022-10-10T16:53:26.413Z,16
2022-10-10T16:56:51.409Z,16
2022-10-10T16:57:31.915Z,12
2022-10-10T16:58:12.469Z,16
2022-10-10T16:58:52.938Z,12
2022-10-10T16:59:33.509Z,12
2022-10-10T17:00:13.990Z,8
2022-10-10T17:00:54.536Z,12
2022-10-10T17:01:35.065Z,8
2022-10-10T17:02:15.514Z,8
2022-10-10T17:02:55.986Z,8
2022-10-10T17:03:36.437Z,8
2022-10-10T17:10:21.291Z,0
2022-10-10T17:11:02.106Z,0
2022-10-10T17:11:42.320Z,4
2022-10-10T17:12:22.781Z,4
2022-10-10T17:13:04.903Z,0
2022-10-10T17:13:45.348Z,0
2022-10-10T17:14:25.950Z,0
2022-10-10T17:21:11.400Z,0
2022-10-10T17:24:26.018Z,0
2022-10-10T17:25:06.214Z,0
2022-10-10T17:25:46.717Z,0
2022-10-10T17:26:27.305Z,0
2022-10-10T17:27:07.746Z,0
2022-10-10T17:27:48.253Z,0
2022-10-10T17:28:29.802Z,0
2022-10-10T17:29:10.406Z,0
2022-10-10T17:33:56.453Z,0
2022-10-10T17:34:36.606Z,0
2022-10-10T17:35:17.095Z,0
2022-10-10T17:35:57.586Z,0
2022-10-10T17:36:38.100Z,0
2022-10-10T17:38:15.868Z,0
2022-10-10T17:43:25.303Z,0
2022-10-10T17:44:05.794Z,0
2022-10-10T17:44:51.405Z,0
2022-10-10T17:45:26.796Z,0
2022-10-10T17:46:29.338Z,0
2022-10-10T17:46:47.793Z,0
2022-10-10T17:47:28.431Z,0
2022-10-10T17:48:08.900Z,0
2022-10-10T17:48:49.600Z,0
2022-10-10T17:49:30.138Z,0
2022-10-10T18:34:14.426Z,0
2022-10-10T18:34:54.885Z,0
2022-10-10T18:35:35.375Z,0
2022-10-10T18:36:15.871Z,0
2022-10-10T18:36:56.494Z,0
2022-10-10T18:37:36.906Z,0
2022-10-10T18:38:17.469Z,0
2022-10-10T18:38:57.933Z,0
2022-10-10T18:39:38.368Z,0
2022-10-10T18:46:23.489Z,0
2022-10-10T18:47:03.920Z,0
2022-10-10T18:47:44.379Z,0
2022-10-10T18:48:24.954Z,0
2022-10-10T18:49:05.463Z,0
2022-10-10T18:50:26.484Z,0
2022-10-10T18:51:07.194Z,0
2022-10-10T18:51:47.789Z,0
2022-10-10T18:52:28.247Z,0
2022-10-10T18:53:08.802Z,0
2022-10-10T18:59:13.397Z,0
2022-10-10T18:59:53.879Z,0
2022-10-10T19:00:34.449Z,0
2022-10-10T19:01:15.386Z,0
2022-10-10T19:01:55.880Z,0
2022-10-10T19:02:36.314Z,0
2022-10-10T19:03:16.862Z,0
2022-10-10T19:03:57.410Z,0
2022-10-10T19:04:37.901Z,0
2022-10-10T19:05:18.360Z,0
2022-10-10T19:11:23.556Z,0
2022-10-10T19:12:04.061Z,0
2022-10-10T19:12:47.249Z,0
2022-10-10T19:13:25.055Z,0
2022-10-10T19:14:05.578Z,0
2022-10-10T19:14:46.079Z,0
2022-10-10T19:15:26.577Z,0
2022-10-10T19:16:07.116Z,0
2022-10-10T19:16:47.613Z,0
2022-10-10T19:17:28.124Z,0
2022-10-10T19:18:08.665Z,0
2022-10-10T19:24:53.680Z,0
2022-10-10T19:25:35.260Z,0
2022-10-10T19:26:15.703Z,0
2022-10-10T19:26:56.210Z,0
2022-10-10T19:27:36.778Z,0
2022-10-10T19:28:17.326Z,0
2022-10-10T19:28:58.001Z,0
2022-10-10T19:29:38.441Z,0
2022-10-10T19:35:46.057Z,0
2022-10-10T19:36:24.215Z,0
2022-10-10T19:37:04.671Z,0
2022-10-10T19:37:45.210Z,0
2022-10-10T19:38:25.629Z,0
2022-10-10T19:39:06.114Z,0
2022-10-10T19:39:46.666Z,0
2022-10-10T19:40:27.147Z,0
2022-10-10T19:41:07.639Z,0
2022-10-10T19:41:48.153Z,0
2022-10-10T19:42:28.672Z,0
2022-10-10T19:48:33.712Z,0
2022-10-10T19:49:14.061Z,0
2022-10-10T19:49:54.511Z,0
2022-10-10T19:50:35.060Z,0
2022-10-10T19:51:15.519Z,0
2022-10-10T19:51:56.039Z,0